createdAt,value
2019-05-11T00:01:20.542Z,12.68
2019-05-11T00:03:51.516Z,12.41
2019-05-11T00:06:22.565Z,12.72
2019-05-11T00:08:53.590Z,12.75
2019-05-11T00:11:24.679Z,12.82
2019-05-11T00:13:55.762Z,12.81
2019-05-11T00:16:26.786Z,12.79
2019-05-11T00:18:57.834Z,12.81
2019-05-11T00:21:28.907Z,12.69
2019-05-11T00:23:59.989Z,12.76
2019-05-11T00:26:31.231Z,12.72
2019-05-11T00:29:02.230Z,12.48
2019-05-11T00:31:33.353Z,12.65
2019-05-11T00:34:04.681Z,12.56
2019-05-11T00:36:35.728Z,12.50
2019-05-11T00:39:08.450Z,12.66
2019-05-11T00:41:39.576Z,12.69
2019-05-11T00:44:10.665Z,12.73
2019-05-11T00:46:41.816Z,12.54
2019-05-11T00:49:12.926Z,12.72
2019-05-11T00:51:43.983Z,12.62
2019-05-11T00:54:14.994Z,12.65
2019-05-11T00:56:46.016Z,12.66
2019-05-11T00:59:21.862Z,12.57
2019-05-11T01:01:49.760Z,12.61
2019-05-11T01:04:20.841Z,12.72
2019-05-11T01:06:51.996Z,12.59
2019-05-11T01:09:23.580Z,12.53
2019-05-11T01:11:54.756Z,12.67
2019-05-11T01:14:25.790Z,12.28
2019-05-11T01:16:56.928Z,12.45
2019-05-11T01:19:27.995Z,12.59
2019-05-11T01:21:59.023Z,11.95
2019-05-11T01:24:30.028Z,12.14
2019-05-11T01:27:02.124Z,12.49
2019-05-11T01:29:33.144Z,12.38
2019-05-11T01:32:04.191Z,12.48
2019-05-11T01:34:35.225Z,12.40
2019-05-11T01:37:06.341Z,12.31
2019-05-11T01:39:37.360Z,12.39
2019-05-11T01:42:08.405Z,12.25
2019-05-11T01:44:39.418Z,12.38
2019-05-11T01:47:10.438Z,12.14
2019-05-11T01:49:42.411Z,12.22
2019-05-11T01:52:13.378Z,12.21
2019-05-11T01:54:44.363Z,12.24
2019-05-11T01:57:15.357Z,12.31
2019-05-11T01:59:46.324Z,12.31
2019-05-11T02:02:17.582Z,12.30
2019-05-11T02:04:51.618Z,12.04
2019-05-11T02:07:23.007Z,11.82
2019-05-11T02:09:55.073Z,12.14
2019-05-11T02:12:26.110Z,12.25
2019-05-11T02:14:57.120Z,12.39
2019-05-11T02:17:28.115Z,12.28
2019-05-11T02:19:59.196Z,12.39
2019-05-11T02:22:30.276Z,12.37
2019-05-11T02:25:01.229Z,12.48
2019-05-11T02:27:32.701Z,12.43
2019-05-11T02:30:03.805Z,12.48
2019-05-11T02:32:34.895Z,12.53
2019-05-11T02:35:06.241Z,12.14
2019-05-11T02:37:37.241Z,12.12
2019-05-11T02:40:10.072Z,12.40
2019-05-11T02:42:41.630Z,12.27
2019-05-11T02:45:13.171Z,12.03
2019-05-11T02:47:44.333Z,12.21
2019-05-11T02:50:15.556Z,12.16
2019-05-11T02:52:47.004Z,12.13
2019-05-11T02:55:18.194Z,12.31
2019-05-11T02:57:49.200Z,12.00
2019-05-11T03:00:26.937Z,11.77
2019-05-11T03:03:00.885Z,12.11
2019-05-11T03:05:34.640Z,12.30
2019-05-11T03:08:06.132Z,12.14
2019-05-11T03:10:37.114Z,11.89
2019-05-11T03:13:08.114Z,12.08
2019-05-11T03:15:39.242Z,11.96
2019-05-11T03:18:10.457Z,11.38
2019-05-11T03:20:41.723Z,11.92
2019-05-11T03:23:12.704Z,12.07
2019-05-11T03:25:43.765Z,12.10
2019-05-11T03:28:14.833Z,12.03
2019-05-11T03:30:45.837Z,12.08
2019-05-11T03:33:16.849Z,12.15
2019-05-11T03:35:47.904Z,12.00
2019-05-11T03:38:18.904Z,11.64
2019-05-11T03:40:50.081Z,11.80
2019-05-11T03:43:21.116Z,11.84
2019-05-11T03:45:52.137Z,12.01
2019-05-11T03:48:23.111Z,12.04
2019-05-11T03:50:54.127Z,12.10
2019-05-11T03:53:25.156Z,11.96
2019-05-11T03:55:56.143Z,12.06
2019-05-11T03:58:27.575Z,12.16
2019-05-11T04:00:58.579Z,12.20
2019-05-11T04:03:30.711Z,12.28
2019-05-11T04:06:02.765Z,12.04
2019-05-11T04:08:33.959Z,12.03
2019-05-11T04:11:05.077Z,12.08
2019-05-11T04:13:36.143Z,12.10
2019-05-11T04:16:07.258Z,12.14
2019-05-11T04:18:38.315Z,12.11
2019-05-11T04:21:09.312Z,12.14
2019-05-11T04:23:40.326Z,12.36
2019-05-11T04:26:11.395Z,12.37
2019-05-11T04:28:42.553Z,12.32
2019-05-11T04:31:13.493Z,12.17
2019-05-11T04:33:44.506Z,12.21
2019-05-11T04:36:15.482Z,12.11
2019-05-11T04:38:46.454Z,12.18
2019-05-11T04:41:18.410Z,12.23
2019-05-11T04:43:49.438Z,11.85
2019-05-11T04:46:20.415Z,11.58
2019-05-11T04:48:51.484Z,11.30
2019-05-11T04:51:22.448Z,11.64
2019-05-11T04:53:53.529Z,11.68
2019-05-11T04:56:24.501Z,11.98
2019-05-11T04:58:55.498Z,11.97
2019-05-11T05:01:26.590Z,11.85
2019-05-11T05:04:12.227Z,11.82
2019-05-11T05:06:30.279Z,11.76
2019-05-11T05:09:03.652Z,11.96
2019-05-11T05:11:36.742Z,11.96
2019-05-11T05:14:08.358Z,12.35
2019-05-11T05:16:39.418Z,12.35
2019-05-11T05:19:10.528Z,12.44
2019-05-11T05:21:41.638Z,12.12
2019-05-11T05:24:12.667Z,11.82
2019-05-11T05:26:43.653Z,11.95
2019-05-11T05:29:14.927Z,12.13
2019-05-11T05:31:46.966Z,12.31
2019-05-11T05:34:17.955Z,12.52
2019-05-11T05:36:48.931Z,12.45
2019-05-11T05:39:20.117Z,12.04
2019-05-11T05:41:56.927Z,12.07
2019-05-11T05:44:27.459Z,11.70
2019-05-11T05:46:56.593Z,11.91
2019-05-11T05:49:27.586Z,11.95
2019-05-11T05:51:58.761Z,12.24
2019-05-11T05:54:29.909Z,12.10
2019-05-11T05:57:00.891Z,12.27
2019-05-11T05:59:31.885Z,12.33
2019-05-11T06:02:02.856Z,12.24
2019-05-11T06:04:34.319Z,12.23
2019-05-11T06:07:05.330Z,12.02
2019-05-11T06:09:36.681Z,12.05
2019-05-11T06:12:07.652Z,11.90
2019-05-11T06:14:38.667Z,12.13
2019-05-11T06:17:09.645Z,12.40
2019-05-11T06:19:40.625Z,12.32
2019-05-11T06:22:11.704Z,12.01
2019-05-11T06:24:42.710Z,12.02
2019-05-11T06:27:13.672Z,11.73
2019-05-11T06:29:44.655Z,11.78
2019-05-11T06:32:15.699Z,12.14
2019-05-11T06:34:46.692Z,12.31
2019-05-11T06:37:17.680Z,12.40
2019-05-11T06:39:48.742Z,12.51
2019-05-11T06:42:19.771Z,12.62
2019-05-11T06:44:50.801Z,12.95
2019-05-11T06:47:21.858Z,12.84
2019-05-11T06:49:54.100Z,12.93
2019-05-11T06:52:25.291Z,13.00
2019-05-11T06:54:56.464Z,13.18
2019-05-11T06:57:27.452Z,12.82
2019-05-11T06:59:58.501Z,12.75
2019-05-11T07:02:29.568Z,12.72
2019-05-11T07:05:00.563Z,12.74
2019-05-11T07:07:46.424Z,12.66
2019-05-11T07:10:04.892Z,12.70
2019-05-11T07:12:35.929Z,12.61
2019-05-11T07:15:07.591Z,12.71
2019-05-11T07:17:39.038Z,12.93
2019-05-11T07:20:10.894Z,12.98
2019-05-11T07:22:42.002Z,13.15
2019-05-11T07:25:13.567Z,13.18
2019-05-11T07:27:44.958Z,13.21
2019-05-11T07:30:17.175Z,13.32
2019-05-11T07:32:48.332Z,13.49
2019-05-11T07:35:19.522Z,13.88
2019-05-11T07:37:50.600Z,13.96
2019-05-11T07:40:21.700Z,14.24
2019-05-11T07:42:52.723Z,14.40
2019-05-11T07:45:23.919Z,14.30
2019-05-11T07:47:55.029Z,14.71
2019-05-11T07:50:28.366Z,14.44
2019-05-11T07:52:59.089Z,14.62
2019-05-11T07:55:30.293Z,14.41
2019-05-11T07:58:01.280Z,14.63
2019-05-11T08:00:36.342Z,14.56
2019-05-11T08:03:05.668Z,15.00
2019-05-11T08:05:38.579Z,15.29
2019-05-11T08:08:09.610Z,15.21
2019-05-11T08:10:40.639Z,15.25
2019-05-11T08:13:11.616Z,14.75
2019-05-11T08:15:42.784Z,15.14
2019-05-11T08:18:13.965Z,14.77
2019-05-11T08:20:47.747Z,14.68
2019-05-11T08:23:18.216Z,14.61
2019-05-11T08:25:49.586Z,14.69
2019-05-11T08:28:20.668Z,14.92
2019-05-11T08:30:51.825Z,14.93
2019-05-11T08:33:23.006Z,15.18
2019-05-11T08:35:54.041Z,14.92
2019-05-11T08:38:25.125Z,14.87
2019-05-11T08:40:56.166Z,14.88
2019-05-11T08:43:28.477Z,14.72
2019-05-11T08:45:59.852Z,14.94
2019-05-11T08:48:30.919Z,14.75
2019-05-11T08:51:01.903Z,14.59
2019-05-11T08:53:33.239Z,14.64
2019-05-11T08:56:04.385Z,14.72
2019-05-11T08:58:37.822Z,15.04
2019-05-11T09:01:08.934Z,15.39
2019-05-11T09:03:40.005Z,15.19
2019-05-11T09:06:11.167Z,15.87
2019-05-11T09:08:42.240Z,15.97
2019-05-11T09:11:13.271Z,15.80
2019-05-11T09:13:44.447Z,16.19
2019-05-11T09:16:18.640Z,16.52
2019-05-11T09:18:48.589Z,16.66
2019-05-11T09:21:20.017Z,16.85
2019-05-11T09:23:51.137Z,16.95
2019-05-11T09:26:22.589Z,16.93
2019-05-11T09:28:53.843Z,16.95
2019-05-11T09:31:24.855Z,16.89
2019-05-11T09:33:58.383Z,17.16
2019-05-11T09:36:29.192Z,17.11
2019-05-11T09:39:00.166Z,16.77
2019-05-11T09:41:31.260Z,16.85
2019-05-11T09:44:02.336Z,16.80
2019-05-11T09:46:33.438Z,16.75
2019-05-11T09:49:04.433Z,16.59
2019-05-11T09:51:37.815Z,16.49
2019-05-11T09:54:08.344Z,16.33
2019-05-11T09:56:39.557Z,15.66
2019-05-11T09:59:10.705Z,15.77
2019-05-11T10:01:41.875Z,16.25
2019-05-11T10:04:13.135Z,15.81
2019-05-11T10:06:44.336Z,15.72
2019-05-11T10:09:15.499Z,15.40
2019-05-11T10:11:48.011Z,15.45
2019-05-11T10:14:19.297Z,15.93
2019-05-11T10:16:50.384Z,16.01
2019-05-11T10:19:21.359Z,16.09
2019-05-11T10:21:52.458Z,15.80
2019-05-11T10:24:23.473Z,15.85
2019-05-11T10:26:54.640Z,15.96
2019-05-11T10:29:25.738Z,15.75
2019-05-11T10:31:58.759Z,15.56
2019-05-11T10:34:29.482Z,15.43
2019-05-11T10:37:00.690Z,15.30
2019-05-11T10:39:32.758Z,15.54
2019-05-11T10:42:03.871Z,15.36
2019-05-11T10:44:34.875Z,15.32
2019-05-11T10:47:08.059Z,15.43
2019-05-11T10:49:38.655Z,15.29
2019-05-11T10:52:09.909Z,15.34
2019-05-11T10:54:41.100Z,15.40
2019-05-11T10:57:12.248Z,15.53
2019-05-11T10:59:43.368Z,15.31
2019-05-11T11:02:14.545Z,15.35
2019-05-11T11:04:45.725Z,15.04
2019-05-11T11:07:19.268Z,14.96
2019-05-11T11:09:49.446Z,14.94
2019-05-11T11:12:20.464Z,14.85
2019-05-11T11:14:51.473Z,14.93
2019-05-11T11:17:22.495Z,15.04
2019-05-11T11:19:53.509Z,14.90
2019-05-11T11:22:37.028Z,14.85
2019-05-11T11:24:58.942Z,14.94
2019-05-11T11:27:30.155Z,14.76
2019-05-11T11:30:01.283Z,14.79
2019-05-11T11:32:32.461Z,14.67
2019-05-11T11:35:03.540Z,14.76
2019-05-11T11:37:34.716Z,14.95
2019-05-11T11:40:08.399Z,14.96
2019-05-11T11:42:39.471Z,15.26
2019-05-11T11:45:12.173Z,15.17
2019-05-11T11:47:43.283Z,15.64
2019-05-11T11:50:14.591Z,15.59
2019-05-11T11:52:47.571Z,15.69
2019-05-11T11:55:18.920Z,15.95
2019-05-11T11:57:51.104Z,15.22
2019-05-11T12:00:23.295Z,15.54
2019-05-11T12:02:54.383Z,15.28
2019-05-11T12:05:25.366Z,15.09
2019-05-11T12:07:58.045Z,15.04
2019-05-11T12:10:30.217Z,14.97
2019-05-11T12:13:01.414Z,14.93
2019-05-11T12:15:33.098Z,15.12
2019-05-11T12:18:04.236Z,14.94
2019-05-11T12:20:35.371Z,14.64
2019-05-11T12:23:08.569Z,14.64
2019-05-11T12:25:40.579Z,14.70
2019-05-11T12:28:11.941Z,14.92
2019-05-11T12:30:43.075Z,14.88
2019-05-11T12:33:14.242Z,14.91
2019-05-11T12:35:45.417Z,14.73
2019-05-11T12:38:18.297Z,14.93
2019-05-11T12:40:50.500Z,14.83
2019-05-11T12:43:22.624Z,14.41
2019-05-11T12:45:54.031Z,14.43
2019-05-11T12:48:25.099Z,14.43
2019-05-11T12:50:58.639Z,14.52
2019-05-11T12:53:29.225Z,14.16
2019-05-11T12:56:00.379Z,14.14
2019-05-11T12:58:31.662Z,14.03
2019-05-11T13:01:02.741Z,14.04
2019-05-11T13:03:33.764Z,13.93
2019-05-11T13:06:05.067Z,13.57
2019-05-11T13:08:36.237Z,13.56
2019-05-11T13:11:07.989Z,13.58
2019-05-11T13:13:39.163Z,13.56
2019-05-11T13:16:10.144Z,13.38
2019-05-11T13:18:41.151Z,13.41
2019-05-11T13:21:12.297Z,13.38
2019-05-11T13:23:43.519Z,13.40
2019-05-11T13:26:14.683Z,13.49
2019-05-11T13:28:48.143Z,13.32
2019-05-11T13:31:18.954Z,13.19
2019-05-11T13:33:51.341Z,13.31
2019-05-11T13:36:22.428Z,13.37
2019-05-11T13:38:54.533Z,12.98
2019-05-11T13:41:27.464Z,12.97
2019-05-11T13:43:58.725Z,12.65
2019-05-11T13:46:29.731Z,12.73
2019-05-11T13:49:00.734Z,12.81
2019-05-11T13:51:31.917Z,12.74
2019-05-11T13:54:02.970Z,12.80
2019-05-11T13:56:33.951Z,12.78
2019-05-11T13:59:10.664Z,12.98
2019-05-11T14:01:42.972Z,12.96
2019-05-11T14:04:13.968Z,12.98
2019-05-11T14:06:44.939Z,13.07
2019-05-11T14:09:18.254Z,13.12
2019-05-11T14:11:49.191Z,13.07
2019-05-11T14:14:20.348Z,12.98
2019-05-11T14:16:51.295Z,13.12
2019-05-11T14:19:22.689Z,12.93
2019-05-11T14:21:53.701Z,13.02
2019-05-11T14:24:25.206Z,13.01
2019-05-11T14:26:58.060Z,13.15
2019-05-11T14:29:29.010Z,13.50
2019-05-11T14:32:00.142Z,13.65
2019-05-11T14:34:31.302Z,13.96
2019-05-11T14:37:02.491Z,13.92
2019-05-11T14:39:33.542Z,14.03
2019-05-11T14:42:04.757Z,14.10
2019-05-11T14:44:37.741Z,14.31
2019-05-11T14:47:08.699Z,14.07
2019-05-11T14:49:39.831Z,13.84
2019-05-11T14:52:10.928Z,13.73
2019-05-11T14:54:42.452Z,13.60
2019-05-11T14:57:13.466Z,13.28
2019-05-11T14:59:44.751Z,13.41
2019-05-11T15:02:33.392Z,13.18
2019-05-11T15:05:04.671Z,13.23
2019-05-11T15:07:38.515Z,13.13
2019-05-11T15:10:10.836Z,12.87
2019-05-11T15:12:42.289Z,12.88
2019-05-11T15:15:13.942Z,12.88
2019-05-11T15:17:45.141Z,12.84
2019-05-11T15:20:17.730Z,12.82
2019-05-11T15:22:49.201Z,12.63
2019-05-11T15:25:21.454Z,13.00
2019-05-11T15:27:52.707Z,12.88
2019-05-11T15:30:24.191Z,13.25
2019-05-11T15:32:55.314Z,12.68
2019-05-11T15:35:28.251Z,12.86
2019-05-11T15:37:59.123Z,12.90
2019-05-11T15:40:30.226Z,12.99
2019-05-11T15:43:01.389Z,13.24
2019-05-11T15:45:32.500Z,13.24
2019-05-11T15:48:03.534Z,13.31
2019-05-11T15:50:34.930Z,12.82
2019-05-11T15:53:08.495Z,12.88
2019-05-11T15:55:42.277Z,13.06
2019-05-11T15:58:11.584Z,13.11
2019-05-11T16:00:42.705Z,13.07
2019-05-11T16:03:13.872Z,13.26
2019-05-11T16:05:45.128Z,13.19
2019-05-11T16:08:18.592Z,13.17
2019-05-11T16:10:49.321Z,13.58
2019-05-11T16:13:20.655Z,13.26
2019-05-11T16:15:51.815Z,13.24
2019-05-11T16:18:22.769Z,13.44
2019-05-11T16:20:53.867Z,13.41
2019-05-11T16:23:25.172Z,13.38
2019-05-11T16:25:58.069Z,13.31
2019-05-11T16:28:30.857Z,13.33
2019-05-11T16:31:01.895Z,13.03
2019-05-11T16:33:34.029Z,13.13
2019-05-11T16:36:09.043Z,13.17
2019-05-11T16:38:39.218Z,13.06
2019-05-11T16:41:10.313Z,13.16
2019-05-11T16:43:41.560Z,13.08
2019-05-11T16:46:12.751Z,13.02
2019-05-11T16:48:43.841Z,12.84
2019-05-11T16:51:14.908Z,12.84
2019-05-11T16:53:47.953Z,12.85
2019-05-11T16:56:19.679Z,12.85
2019-05-11T16:58:54.178Z,13.00
2019-05-11T17:01:23.872Z,12.83
2019-05-11T17:03:54.853Z,12.97
2019-05-11T17:17:28.437Z,12.93
2019-05-11T17:19:59.874Z,12.88
2019-05-11T17:22:31.088Z,12.89
2019-05-11T17:25:02.160Z,12.82
2019-05-11T17:27:34.474Z,12.99
2019-05-11T17:30:08.590Z,12.99
2019-05-11T17:32:39.809Z,13.15
2019-05-11T17:35:11.467Z,12.63
2019-05-11T17:37:42.600Z,12.96
2019-05-11T17:40:14.129Z,12.78
2019-05-11T17:42:47.391Z,12.81
2019-05-11T17:45:18.827Z,12.82
2019-05-11T17:47:50.333Z,12.68
2019-05-11T17:50:21.565Z,12.62
2019-05-11T17:52:52.705Z,12.63
2019-05-11T17:55:23.807Z,12.51
2019-05-11T17:57:54.866Z,12.57
2019-05-11T18:00:28.125Z,12.67
2019-05-11T18:02:58.991Z,12.67
2019-05-11T18:05:30.211Z,12.60
2019-05-11T18:08:01.326Z,12.72
2019-05-11T18:10:32.450Z,12.66
2019-05-11T18:13:04.275Z,12.19
2019-05-11T18:15:37.850Z,12.27
2019-05-11T18:18:09.394Z,12.31
2019-05-11T18:20:41.825Z,12.62
2019-05-11T18:23:12.868Z,12.67
2019-05-11T18:25:44.467Z,12.78
2019-05-11T18:28:18.000Z,12.61
2019-05-11T18:30:49.679Z,12.45
2019-05-11T18:33:20.732Z,12.38
2019-05-11T18:35:51.899Z,12.33
2019-05-11T18:38:22.924Z,12.31
2019-05-11T18:40:53.950Z,12.39
2019-05-11T18:43:25.012Z,12.05
2019-05-11T18:45:58.081Z,12.04
2019-05-11T18:48:29.261Z,11.84
2019-05-11T18:51:00.577Z,11.76
2019-05-11T18:53:31.825Z,12.00
2019-05-11T18:56:02.988Z,11.72
2019-05-11T18:58:34.047Z,12.09
2019-05-11T19:01:05.087Z,12.05
2019-05-11T19:03:38.481Z,12.05
2019-05-11T19:06:10.983Z,11.83
2019-05-11T19:08:42.051Z,12.13
2019-05-11T19:11:13.078Z,12.10
2019-05-11T19:13:44.242Z,11.98
2019-05-11T19:16:15.341Z,11.74
2019-05-11T19:18:48.027Z,11.84
2019-05-11T19:21:19.162Z,11.66
2019-05-11T19:23:50.175Z,11.67
2019-05-11T19:26:21.424Z,11.65
2019-05-11T19:28:52.445Z,11.66
2019-05-11T19:31:23.569Z,11.52
2019-05-11T19:33:54.642Z,11.72
2019-05-11T19:36:27.715Z,11.38
2019-05-11T19:38:58.568Z,11.30
2019-05-11T19:41:29.754Z,11.36
2019-05-11T19:44:00.795Z,11.39
2019-05-11T19:46:31.886Z,11.49
2019-05-11T19:49:03.012Z,11.35
2019-05-11T19:51:33.998Z,11.44
2019-05-11T19:54:05.087Z,11.77
2019-05-11T19:56:38.325Z,11.75
2019-05-11T19:59:09.265Z,11.67
2019-05-11T20:01:40.409Z,11.52
2019-05-11T20:04:11.943Z,11.52
2019-05-11T20:06:43.041Z,11.73
2019-05-11T20:09:15.357Z,11.54
2019-05-11T20:11:47.634Z,11.54
2019-05-11T20:14:18.957Z,11.50
2019-05-11T20:16:49.966Z,11.34
2019-05-11T20:19:21.478Z,11.32
2019-05-11T20:21:52.519Z,11.43
2019-05-11T20:24:25.210Z,11.61
2019-05-11T20:26:56.337Z,11.39
2019-05-11T20:29:27.831Z,11.23
2019-05-11T20:31:58.952Z,11.20
2019-05-11T20:34:30.230Z,11.22
2019-05-11T20:37:01.314Z,11.31
2019-05-11T20:39:32.838Z,11.42
2019-05-11T20:42:03.917Z,11.60
2019-05-11T20:44:35.002Z,11.35
2019-05-11T20:47:06.115Z,11.52
2019-05-11T20:49:38.667Z,11.20
2019-05-11T20:52:10.021Z,11.32
2019-05-11T20:54:41.148Z,10.96
2019-05-11T20:57:12.324Z,11.02
2019-05-11T20:59:43.555Z,11.31
2019-05-11T21:02:14.569Z,11.16
2019-05-11T21:04:45.837Z,11.17
2019-05-11T21:07:16.831Z,11.30
2019-05-11T21:09:48.389Z,10.93
2019-05-11T21:12:19.486Z,11.10
2019-05-11T21:14:50.741Z,11.03
2019-05-11T21:17:21.825Z,10.95
2019-05-11T21:19:52.903Z,10.83
2019-05-11T21:22:24.018Z,11.02
2019-05-11T21:24:55.034Z,11.00
2019-05-11T21:27:28.217Z,11.11
2019-05-11T21:29:59.030Z,11.12
2019-05-11T21:32:30.137Z,10.77
2019-05-11T21:35:01.227Z,10.73
2019-05-11T21:37:32.293Z,10.61
2019-05-11T21:40:03.828Z,10.72
2019-05-11T21:42:35.076Z,10.95
2019-05-11T21:45:09.137Z,10.88
2019-05-11T21:47:39.862Z,10.48
2019-05-11T21:50:11.716Z,10.50
2019-05-11T21:52:42.835Z,10.64
2019-05-11T21:55:14.106Z,10.48
2019-05-11T21:57:49.420Z,10.62
2019-05-11T22:00:18.966Z,10.40
2019-05-11T22:02:51.831Z,10.48
2019-05-11T22:05:22.837Z,10.25
2019-05-11T22:07:53.988Z,10.45
2019-05-11T22:10:25.031Z,10.45
2019-05-11T22:12:56.059Z,10.37
2019-05-11T22:15:28.393Z,10.63
2019-05-11T22:18:01.073Z,10.64
2019-05-11T22:20:32.182Z,10.41
2019-05-11T22:23:03.289Z,10.48
2019-05-11T22:25:34.367Z,10.18
2019-05-11T22:28:05.341Z,10.33
2019-05-11T22:30:39.064Z,10.31
2019-05-11T22:33:09.457Z,10.36
2019-05-11T22:35:40.737Z,10.18
2019-05-11T22:38:11.798Z,10.25
2019-05-11T22:40:43.346Z,10.38
2019-05-11T22:43:14.624Z,10.31
2019-05-11T22:45:46.089Z,10.46
2019-05-11T22:48:17.231Z,10.33
2019-05-11T22:50:50.524Z,10.32
2019-05-11T22:53:21.137Z,10.18
2019-05-11T22:55:52.205Z,10.13
2019-05-11T22:58:23.241Z,10.12
2019-05-11T23:00:54.217Z,10.15
2019-05-11T23:03:27.696Z,10.11
2019-05-11T23:05:58.253Z,10.21
2019-05-11T23:08:29.599Z,10.13
2019-05-11T23:11:00.630Z,10.02
2019-05-11T23:13:31.663Z,10.25
2019-05-11T23:16:02.830Z,9.95
2019-05-11T23:18:33.915Z,10.05
2019-05-11T23:23:42.185Z,9.76
2019-05-11T23:26:13.250Z,9.66
2019-05-11T23:28:44.295Z,9.61
2019-05-11T23:31:15.277Z,9.95
2019-05-11T23:33:46.285Z,9.88
2019-05-11T23:36:18.300Z,9.89
2019-05-11T23:38:49.461Z,10.05
2019-05-11T23:41:24.503Z,9.89
2019-05-11T23:43:53.309Z,9.72
2019-05-11T23:46:24.330Z,9.71
2019-05-11T23:48:55.301Z,9.74
2019-05-11T23:51:28.333Z,10.01
2019-05-11T23:53:59.480Z,9.92
2019-05-11T23:56:30.449Z,9.91
2019-05-11T23:59:01.543Z,9.96
